This is the latest recevied weather packets stored in our database for station/object KF0WJA. If no packets are shown the sender has not sent any weather packets the latest 10 day(s).
| Time | Temp. | Humidity | Pressure | Rain* | Wind** | Luminosity | Snow |
|---|---|---|---|---|---|---|---|
| 1787418581 | 26.11° C | 70% | 1023 hPa | 0 mm | - | 743 W/m² | - |
| 1787418277 | 25.56° C | 72% | 1023 hPa | 0 mm | - | 764 W/m² | - |
| 1787417972 | 25.56° C | 73% | 1023 hPa | 0 mm | - | 732 W/m² | - |
| 1787417669 | 24.44° C | 77% | 1023.2 hPa | 0 mm | - | 714 W/m² | - |
| 1787417368 | 23.89° C | 79% | 1023.4 hPa | 0 mm | - | 627 W/m² | - |
| 1787417064 | 23.33° C | 80% | 1023.3 hPa | 0 mm | - | 432 W/m² | - |
| 1787416760 | 23.89° C | 81% | 1023.5 hPa | 0 mm | - | 647 W/m² | - |
| 1787416456 | 23.89° C | 82% | 1023.3 hPa | 0 mm | - | 612 W/m² | - |
| 1787416156 | 23.33° C | 84% | 1023.5 hPa | 0 mm | - | 576 W/m² | - |
| 1787415852 | 22.78° C | 85% | 1023.5 hPa | 0 mm | - | 390 W/m² | - |
| 1787415551 | 23.33° C | 86% | 1023.5 hPa | 0 mm | - | 306 W/m² | - |
| 1787415246 | 23.33° C | 87% | 1023.4 hPa | 0 mm | - | 274 W/m² | - |
| 1787414942 | 23.33° C | 89% | 1023.4 hPa | 0 mm | - | 421 W/m² | - |
| 1787414637 | 22.78° C | 91% | 1023.5 hPa | 0 mm | - | 386 W/m² | - |
| 1787414336 | 22.78° C | 92% | 1023.7 hPa | 0 mm | - | 298 W/m² | - |
| 1787414031 | 22.22° C | 93% | 1023.3 hPa | 1.78 mm | - | 207 W/m² | - |
| 1787413730 | 22.78° C | 92% | 1023 hPa | 1.78 mm | - | 120 W/m² | - |
| 1787413431 | 22.78° C | 90% | 1022.8 hPa | 0 mm | - | 69 W/m² | - |
| 1787413127 | 22.78° C | 88% | 1022.8 hPa | 0 mm | - | 55 W/m² | - |
| 1787412823 | 23.89° C | 84% | 1022.7 hPa | 1.27 mm | - | 49 W/m² | - |
| 1787412522 | 23.89° C | 84% | 1023 hPa | 1.27 mm | - | 52 W/m² | - |
| 1787412218 | 23.33° C | 91% | 1022.6 hPa | 0 mm | - | 85 W/m² | - |
| 1787411915 | 23.33° C | 93% | 1022.2 hPa | 0 mm | - | 84 W/m² | - |
| 1787411611 | 23.33° C | 93% | 1022 hPa | 0 mm | - | 75 W/m² | - |
| 1787411306 | 23.33° C | 92% | 1022.2 hPa | 0 mm | - | 56 W/m² | - |
* Rain latest hour (hover to see other rain measurements)
** Current wind speed in m/s (hover to see current wind gust speed)